Ashland, South Carolina
Current Conditions -  °F | °C
As of 5:35 AM on Sunday 21 Dec 2014 (Local Time) from KHVS Reporting Station
Overcast Overcast  
Wind Chill: 33°   Ceiling: 9000
Heat Index: 37°   Visibility: 5mi
Dew Point: 37°   Wind: 6mph
Humidity: 100%   Direction: 40°NE
Pressure: 30.24"   Gusts: NA
Location:  34.2324°N, 80.2824°W
Report Text: KHVS 211035Z AUTO 04005KT 5SM OVC090 03/03 A3024 RMK AO2
Loading
Personal Weather Stations






























Interactive Weather Map New forecast layout! Learn more

10-Day Weather Forecast

Advertisements
Track Severe Weather on mobile